createdAt,value
2017-09-20T00:00:24.715Z,63.92
2017-09-20T00:01:05.165Z,63.92
2017-09-20T00:01:45.615Z,63.92
2017-09-20T00:02:26.044Z,64.4
2017-09-20T00:03:06.493Z,63.82
2017-09-20T00:03:46.924Z,64.02
2017-09-20T00:04:27.374Z,63.82
2017-09-20T00:05:07.818Z,64.31
2017-09-20T00:05:48.256Z,63.92
2017-09-20T00:06:28.691Z,64.02
2017-09-20T00:07:09.119Z,64.4
2017-09-20T00:07:49.563Z,64.4
2017-09-20T00:08:30.009Z,64.02
2017-09-20T00:09:10.460Z,64.02
2017-09-20T00:09:50.904Z,64.5
2017-09-20T00:10:31.353Z,64.5
2017-09-20T00:11:11.786Z,64.31
2017-09-20T00:11:52.230Z,64.5
2017-09-20T00:12:32.681Z,64.4
2017-09-20T00:13:13.134Z,64.31
2017-09-20T00:13:53.585Z,64.4
2017-09-20T00:14:34.027Z,64.31
2017-09-20T00:15:14.475Z,64.4
2017-09-20T00:15:54.927Z,64.5
2017-09-20T00:16:35.376Z,64.4
2017-09-20T00:17:15.824Z,64.4
2017-09-20T00:17:56.279Z,64.31
2017-09-20T00:18:36.725Z,64.31
2017-09-20T00:19:17.174Z,64.31
2017-09-20T00:19:57.638Z,64.21
2017-09-20T00:20:38.089Z,64.31
2017-09-20T00:21:18.532Z,64.11
2017-09-20T00:21:58.981Z,64.31
2017-09-20T00:22:39.431Z,64.4
2017-09-20T00:23:19.881Z,64.31
2017-09-20T00:24:00.335Z,64.5
2017-09-20T00:24:40.785Z,64.31
2017-09-20T00:25:21.233Z,64.59
2017-09-20T00:26:01.685Z,64.31
2017-09-20T00:26:42.129Z,64.5
2017-09-20T00:28:39.812Z,64.11
2017-09-20T00:29:20.257Z,64.4
2017-09-20T00:30:00.700Z,64.5
2017-09-20T00:30:41.149Z,64.31
2017-09-20T00:31:21.599Z,64.5
2017-09-20T00:32:02.042Z,64.31
2017-09-20T00:32:42.492Z,64.59
2017-09-20T00:33:22.936Z,64.31
2017-09-20T00:34:03.391Z,64.31
2017-09-20T00:34:43.833Z,64.31
2017-09-20T00:35:24.284Z,64.21
2017-09-20T00:36:04.729Z,64.31
2017-09-20T00:36:45.171Z,64.4
2017-09-20T00:37:25.612Z,64.21
2017-09-20T00:38:06.060Z,64.21
2017-09-20T00:38:46.507Z,64.21
2017-09-20T00:39:26.956Z,64.21
2017-09-20T00:40:07.425Z,64.11
2017-09-20T00:40:47.835Z,64.11
2017-09-20T00:41:28.289Z,64.11
2017-09-20T00:42:08.730Z,64.11
2017-09-20T00:42:49.182Z,64.02
2017-09-20T00:43:29.628Z,64.11
2017-09-20T00:44:10.067Z,64.21
2017-09-20T00:44:50.518Z,64.02
2017-09-20T00:45:30.963Z,64.02
2017-09-20T00:46:11.413Z,64.02
2017-09-20T00:46:51.864Z,64.69
2017-09-20T00:47:32.310Z,64.31
2017-09-20T00:48:12.761Z,64.31
2017-09-20T00:48:53.218Z,64.11
2017-09-20T00:49:33.666Z,64.69
2017-09-20T00:50:14.129Z,64.59
2017-09-20T00:50:54.575Z,64.69
2017-09-20T00:51:35.028Z,64.11
2017-09-20T00:52:15.474Z,64.79
2017-09-20T00:54:13.586Z,64.21
2017-09-20T00:54:54.037Z,64.02
2017-09-20T00:55:34.484Z,64.24
2017-09-20T00:56:14.954Z,64.69
2017-09-20T00:56:55.377Z,64.21
2017-09-20T00:57:35.830Z,63.92
2017-09-20T00:58:16.272Z,64.11
2017-09-20T00:58:56.710Z,64.11
2017-09-20T00:59:37.156Z,64.02
2017-09-20T01:00:17.603Z,64.11
2017-09-20T01:00:58.043Z,64.11
2017-09-20T01:01:38.488Z,64.02
2017-09-20T01:02:18.932Z,64.21
2017-09-20T01:02:59.377Z,64.24
2017-09-20T01:03:39.826Z,64.21
2017-09-20T01:04:20.266Z,64.02
2017-09-20T01:05:00.714Z,64.31
2017-09-20T01:05:41.161Z,64.69
2017-09-20T01:06:21.601Z,64.02
2017-09-20T01:07:02.045Z,64.02
2017-09-20T01:07:42.480Z,64.79
2017-09-20T01:08:22.932Z,64.79
2017-09-20T01:09:03.416Z,64.69
2017-09-20T01:09:43.831Z,64.69
2017-09-20T01:10:24.281Z,64.69
2017-09-20T01:11:04.731Z,64.31
2017-09-20T01:11:45.181Z,64.69
2017-09-20T01:12:25.627Z,64.31
2017-09-20T01:13:06.079Z,64.31
2017-09-20T01:13:46.527Z,64.31
2017-09-20T01:14:26.974Z,64.5
2017-09-20T01:15:07.419Z,64.31
2017-09-20T01:15:47.871Z,64.31
2017-09-20T01:16:28.319Z,64.31
2017-09-20T01:17:08.766Z,64.31
2017-09-20T01:17:49.215Z,64.31
2017-09-20T01:18:29.664Z,64.31
2017-09-20T01:19:10.111Z,64.31
2017-09-20T01:19:50.563Z,64.5
2017-09-20T01:20:31.017Z,64.59
2017-09-20T01:21:11.463Z,64.21
2017-09-20T01:21:51.917Z,64.31
2017-09-20T01:22:32.348Z,64.5
2017-09-20T01:23:12.796Z,64.31
2017-09-20T01:23:53.251Z,64.21
2017-09-20T01:24:33.699Z,64.89
2017-09-20T01:25:14.140Z,64.5
2017-09-20T01:25:54.586Z,64.59
2017-09-20T01:26:35.035Z,64.59
2017-09-20T01:27:15.486Z,64.5
2017-09-20T01:27:55.935Z,64.31
2017-09-20T01:28:36.371Z,64.31
2017-09-20T01:29:16.817Z,64.4
2017-09-20T01:29:57.271Z,64.31
2017-09-20T01:30:37.725Z,64.5
2017-09-20T01:31:18.180Z,64.31
2017-09-20T01:31:58.629Z,64.31
2017-09-20T01:32:39.084Z,64.5
2017-09-20T01:33:19.534Z,64.31
2017-09-20T01:33:59.989Z,64.31
2017-09-20T01:34:40.440Z,64.31
2017-09-20T01:35:20.882Z,64.31
2017-09-20T01:36:01.333Z,64.69
2017-09-20T01:36:41.781Z,64.31
2017-09-20T01:37:22.231Z,64.31
2017-09-20T01:38:02.679Z,64.69
2017-09-20T01:38:43.124Z,64.31
2017-09-20T01:39:23.570Z,64.59
2017-09-20T01:40:04.023Z,64.5
2017-09-20T01:40:44.467Z,64.31
2017-09-20T01:41:24.913Z,64.31
2017-09-20T01:42:05.370Z,64.4
2017-09-20T01:42:47.292Z,64.5
2017-09-20T01:43:27.743Z,64.5
2017-09-20T01:44:08.186Z,64.11
2017-09-20T01:44:48.631Z,64.5
2017-09-20T01:45:29.095Z,64.5
2017-09-20T01:46:09.543Z,64.21
2017-09-20T01:46:50.688Z,64.11
2017-09-20T01:47:31.132Z,64.79
2017-09-20T01:48:11.580Z,64.59
2017-09-20T01:48:52.028Z,64.79
2017-09-20T01:49:32.474Z,64.69
2017-09-20T01:50:12.924Z,64.79
2017-09-20T01:50:53.371Z,64.59
2017-09-20T01:51:33.817Z,64.79
2017-09-20T01:52:14.268Z,64.79
2017-09-20T01:52:54.714Z,64.79
2017-09-20T01:53:35.177Z,64.79
2017-09-20T01:54:15.618Z,64.69
2017-09-20T01:54:56.061Z,64.5
2017-09-20T01:55:36.511Z,64.5
2017-09-20T01:56:16.960Z,64.69
2017-09-20T01:56:57.404Z,64.79
2017-09-20T01:57:37.861Z,64.69
2017-09-20T01:58:18.305Z,64.69
2017-09-20T01:58:58.743Z,64.69
2017-09-20T01:59:39.193Z,64.69
2017-09-20T02:00:19.643Z,64.69
2017-09-20T02:01:00.095Z,64.69
2017-09-20T02:01:40.532Z,64.59
2017-09-20T02:02:20.981Z,64.69
2017-09-20T02:03:01.435Z,64.59
2017-09-20T02:03:41.878Z,64.69
2017-09-20T02:04:22.327Z,64.79
2017-09-20T02:05:02.771Z,64.69
2017-09-20T02:05:43.222Z,64.69
2017-09-20T02:06:23.672Z,64.79
2017-09-20T02:07:04.124Z,64.59
2017-09-20T02:07:44.577Z,64.79
2017-09-20T02:08:25.027Z,64.89
2017-09-20T02:09:05.469Z,64.59
2017-09-20T02:09:45.922Z,64.79
2017-09-20T02:10:26.373Z,64.79
2017-09-20T02:11:06.819Z,64.59
2017-09-20T02:11:47.312Z,64.79
2017-09-20T02:12:27.765Z,64.79
2017-09-20T02:13:08.212Z,64.89
2017-09-20T02:13:48.663Z,64.69
2017-09-20T02:14:29.126Z,64.89
2017-09-20T02:15:09.569Z,64.79
2017-09-20T02:15:50.032Z,64.4
2017-09-20T02:16:30.485Z,64.79
2017-09-20T02:17:10.932Z,64.79
2017-09-20T02:17:51.380Z,64.69
2017-09-20T02:18:31.827Z,64.79
2017-09-20T02:19:12.276Z,64.69
2017-09-20T02:19:52.719Z,64.79
2017-09-20T02:20:33.162Z,64.69
2017-09-20T02:21:13.614Z,64.69
2017-09-20T02:21:54.063Z,64.69
2017-09-20T02:22:34.510Z,64.79
2017-09-20T02:23:14.962Z,64.5
2017-09-20T02:23:55.408Z,64.69
2017-09-20T02:24:35.855Z,64.79
2017-09-20T02:25:16.323Z,64.69
2017-09-20T02:25:56.766Z,64.69
2017-09-20T02:26:37.210Z,64.69
2017-09-20T02:27:17.661Z,64.5
2017-09-20T02:27:58.106Z,64.69
2017-09-20T02:28:38.553Z,64.69
2017-09-20T02:29:19.004Z,64.69
2017-09-20T02:29:59.451Z,64.69
2017-09-20T02:30:39.900Z,64.69
2017-09-20T02:31:20.346Z,64.69
2017-09-20T02:32:00.790Z,64.79
2017-09-20T02:32:41.229Z,64.69
2017-09-20T02:33:21.675Z,64.5
2017-09-20T02:34:02.125Z,64.69
2017-09-20T02:34:42.571Z,64.79
2017-09-20T02:35:23.029Z,64.69
2017-09-20T02:36:03.478Z,64.69
2017-09-20T02:36:43.927Z,64.69
2017-09-20T02:37:24.364Z,64.79
2017-09-20T02:38:04.812Z,64.69
2017-09-20T02:38:45.253Z,64.79
2017-09-20T02:39:25.703Z,64.5
2017-09-20T02:40:06.150Z,64.79
2017-09-20T02:40:46.601Z,64.69
2017-09-20T02:41:27.053Z,64.69
2017-09-20T02:42:07.495Z,64.69
2017-09-20T02:42:47.973Z,64.69
2017-09-20T02:43:28.402Z,64.79
2017-09-20T02:44:08.854Z,64.59
2017-09-20T02:44:49.299Z,64.5
2017-09-20T02:45:29.748Z,64.69
2017-09-20T02:46:10.194Z,64.5
2017-09-20T02:46:50.676Z,64.5
2017-09-20T02:47:31.126Z,64.69
2017-09-20T02:48:11.581Z,64.59
2017-09-20T02:48:52.028Z,64.69
2017-09-20T02:49:32.478Z,64.59
2017-09-20T02:50:12.918Z,64.5
2017-09-20T02:50:53.369Z,64.69
2017-09-20T02:51:33.815Z,64.69
2017-09-20T02:52:14.247Z,64.69
2017-09-20T02:52:54.698Z,64.69
2017-09-20T02:53:35.142Z,64.5
2017-09-20T02:54:15.574Z,64.69
2017-09-20T02:54:55.986Z,64.5
2017-09-20T02:55:36.427Z,64.69
2017-09-20T02:56:16.880Z,64.5
2017-09-20T02:56:57.332Z,64.5
2017-09-20T02:57:37.767Z,64.59
2017-09-20T02:58:18.210Z,64.5
2017-09-20T02:58:58.660Z,64.5
2017-09-20T02:59:39.106Z,64.69
2017-09-20T03:00:19.551Z,64.79
2017-09-20T03:01:00.006Z,64.5
2017-09-20T03:01:40.458Z,64.69
2017-09-20T03:02:20.906Z,64.69
2017-09-20T03:03:01.340Z,64.59
2017-09-20T03:03:41.788Z,64.59
2017-09-20T03:04:22.218Z,64.69
2017-09-20T03:05:02.659Z,64.59
2017-09-20T03:05:43.111Z,64.69
2017-09-20T03:06:23.564Z,64.69
2017-09-20T03:07:04.011Z,64.59
2017-09-20T03:07:44.460Z,64.4
2017-09-20T03:08:24.915Z,64.59
2017-09-20T03:09:05.354Z,64.59
2017-09-20T03:09:45.806Z,64.5
2017-09-20T03:10:26.244Z,64.59
2017-09-20T03:11:06.698Z,64.59
2017-09-20T03:11:47.142Z,64.59
2017-09-20T03:12:27.590Z,64.5
2017-09-20T03:13:08.026Z,64.59
2017-09-20T03:13:48.470Z,64.5
2017-09-20T03:14:28.927Z,64.69
2017-09-20T03:15:09.380Z,64.59
2017-09-20T03:15:49.823Z,64.69
2017-09-20T03:16:30.277Z,64.79
2017-09-20T03:17:10.720Z,64.69
2017-09-20T03:17:51.170Z,64.79
2017-09-20T03:18:31.615Z,64.4
2017-09-20T03:19:12.067Z,64.69
2017-09-20T03:19:52.509Z,64.4
2017-09-20T03:20:32.962Z,64.69
2017-09-20T03:21:13.405Z,64.69
2017-09-20T03:21:53.855Z,64.69
2017-09-20T03:22:34.316Z,64.79
2017-09-20T03:23:14.758Z,64.69
2017-09-20T03:23:55.209Z,64.69
2017-09-20T03:24:35.653Z,64.79
2017-09-20T03:25:16.102Z,64.69
2017-09-20T03:25:56.582Z,64.69
2017-09-20T03:26:37.028Z,64.69
2017-09-20T03:27:17.470Z,64.69
2017-09-20T03:27:57.912Z,64.69
2017-09-20T03:28:38.360Z,64.69
2017-09-20T03:29:18.806Z,64.69
2017-09-20T03:29:59.246Z,64.79
2017-09-20T03:30:39.681Z,64.79
2017-09-20T03:31:20.134Z,64.59
2017-09-20T03:32:00.573Z,64.69
2017-09-20T03:32:41.025Z,64.59
2017-09-20T03:33:21.472Z,64.5
2017-09-20T03:34:01.951Z,64.79
2017-09-20T03:34:42.360Z,64.69
2017-09-20T03:35:22.813Z,64.59
2017-09-20T03:36:03.262Z,64.69
2017-09-20T03:36:43.714Z,64.5
2017-09-20T03:37:24.156Z,64.79
2017-09-20T03:38:04.606Z,64.89
2017-09-20T03:38:45.055Z,64.79
2017-09-20T03:39:25.507Z,64.5
2017-09-20T03:40:05.961Z,64.69
2017-09-20T03:40:46.415Z,64.5
2017-09-20T03:41:26.865Z,64.69
2017-09-20T03:42:07.313Z,64.4
2017-09-20T03:42:47.758Z,64.59
2017-09-20T03:43:28.208Z,64.5
2017-09-20T03:44:08.653Z,64.59
2017-09-20T03:44:49.101Z,65.08
2017-09-20T03:45:29.553Z,65.08
2017-09-20T03:46:10.007Z,65.08
2017-09-20T03:46:50.457Z,65.08
2017-09-20T03:47:30.889Z,65.37
2017-09-20T03:48:11.345Z,65.47
2017-09-20T03:48:51.797Z,65.37
2017-09-20T03:49:32.242Z,65.08
2017-09-20T03:50:12.691Z,65.47
2017-09-20T03:50:53.136Z,65.37
2017-09-20T03:51:33.585Z,65.47
2017-09-20T03:52:14.034Z,65.27
2017-09-20T03:52:54.489Z,65.37
2017-09-20T03:53:34.938Z,65.17
2017-09-20T03:54:15.397Z,65.27
2017-09-20T03:54:55.837Z,65.17
2017-09-20T03:55:36.293Z,65.66
2017-09-20T03:56:16.737Z,65.66
2017-09-20T03:56:57.188Z,65.37
2017-09-20T03:57:37.641Z,65.47
2017-09-20T03:58:18.091Z,65.56
2017-09-20T03:58:58.529Z,65.66
2017-09-20T03:59:38.980Z,65.66
2017-09-20T04:00:19.422Z,65.27
2017-09-20T04:00:59.874Z,65.27
2017-09-20T04:01:40.316Z,65.37
2017-09-20T04:02:20.767Z,65.75
2017-09-20T04:03:01.222Z,65.27
2017-09-20T04:03:41.681Z,65.75
2017-09-20T04:04:22.128Z,65.66
2017-09-20T04:05:02.574Z,65.17
2017-09-20T04:05:43.022Z,65.17
2017-09-20T04:06:23.467Z,65.27
2017-09-20T04:07:03.921Z,65.56
2017-09-20T04:07:44.363Z,64.98
2017-09-20T04:08:24.817Z,65.17
2017-09-20T04:09:05.266Z,65.08
2017-09-20T04:11:02.949Z,65.17
2017-09-20T04:11:43.395Z,64.79
2017-09-20T04:12:23.829Z,64.69
2017-09-20T04:13:04.264Z,65.01
2017-09-20T04:13:44.704Z,64.79
2017-09-20T04:14:25.152Z,64.53
2017-09-20T04:15:05.609Z,64.5
2017-09-20T04:15:46.024Z,64.43
2017-09-20T04:16:26.489Z,64.43
2017-09-20T04:17:06.924Z,64.63
2017-09-20T04:17:47.366Z,64.4
2017-09-20T04:18:27.830Z,64.63
2017-09-20T04:19:08.253Z,64.4
2017-09-20T04:19:48.704Z,64.69
2017-09-20T04:20:29.138Z,64.53
2017-09-20T04:21:09.579Z,64.63
2017-09-20T04:21:50.023Z,64.4
2017-09-20T04:22:30.477Z,64.53
2017-09-20T04:23:10.919Z,64.5
2017-09-20T04:23:51.397Z,64.63
2017-09-20T04:24:31.845Z,64.72
2017-09-20T04:25:12.291Z,64.53
2017-09-20T04:25:52.735Z,64.63
2017-09-20T04:26:33.188Z,64.63
2017-09-20T04:27:14.794Z,64.53
2017-09-20T04:27:55.252Z,64.72
2017-09-20T04:28:35.694Z,64.72
2017-09-20T04:29:16.111Z,64.63
2017-09-20T04:31:03.618Z,64.72
2017-09-20T04:31:44.073Z,64.72
2017-09-20T04:32:24.513Z,64.53
2017-09-20T04:33:05.071Z,64.72
2017-09-20T04:33:45.510Z,64.63
2017-09-20T04:34:25.954Z,64.24
2017-09-20T04:35:06.403Z,64.24
2017-09-20T04:35:46.846Z,64.53
2017-09-20T04:36:27.293Z,64.63
2017-09-20T04:37:07.718Z,64.63
2017-09-20T04:37:48.170Z,64.72
2017-09-20T04:38:28.611Z,63.95
2017-09-20T04:39:09.057Z,64.15
2017-09-20T04:39:49.502Z,64.15
2017-09-20T04:40:29.950Z,64.34
2017-09-20T04:41:10.420Z,64.34
2017-09-20T04:41:50.864Z,64.53
2017-09-20T04:42:31.310Z,64.15
2017-09-20T04:43:11.757Z,63.95
2017-09-20T04:43:52.197Z,64.24
2017-09-20T04:44:32.655Z,63.95
2017-09-20T04:45:13.093Z,64.15
2017-09-20T04:45:53.543Z,63.76
2017-09-20T04:46:33.991Z,64.05
2017-09-20T04:47:14.444Z,63.95
2017-09-20T04:47:54.894Z,63.95
2017-09-20T04:48:35.341Z,63.85
2017-09-20T04:49:15.788Z,64.15
2017-09-20T04:49:56.226Z,64.05
2017-09-20T04:50:36.676Z,64.05
2017-09-20T04:51:17.133Z,63.95
2017-09-20T04:51:57.607Z,63.47
2017-09-20T04:52:38.029Z,63.76
2017-09-20T04:53:18.473Z,63.76
2017-09-20T04:53:58.922Z,63.76
2017-09-20T04:54:39.393Z,63.85
2017-09-20T04:55:19.847Z,63.67
2017-09-20T04:56:00.298Z,63.47
2017-09-20T04:56:40.752Z,63.28
2017-09-20T04:57:21.189Z,63.37
2017-09-20T04:58:01.634Z,63.47
2017-09-20T04:58:42.079Z,63.37
2017-09-20T04:59:22.533Z,63.57
2017-09-20T05:00:02.985Z,63.37
2017-09-20T05:00:43.418Z,63.67
2017-09-20T05:01:23.864Z,63.47
2017-09-20T05:02:04.301Z,63.37
2017-09-20T05:02:44.748Z,63.37
2017-09-20T05:03:25.207Z,63.37
2017-09-20T05:04:05.864Z,63.37
2017-09-20T05:04:46.311Z,63.47
2017-09-20T05:05:26.904Z,63.76
2017-09-20T05:06:07.344Z,63.57
2017-09-20T05:06:48.039Z,63.37
2017-09-20T05:07:28.599Z,63.85
2017-09-20T05:08:09.090Z,63.76
2017-09-20T05:08:49.537Z,63.47
2017-09-20T05:09:29.983Z,63.85
2017-09-20T05:10:10.431Z,63.85
2017-09-20T05:10:50.877Z,63.57
2017-09-20T05:11:31.326Z,63.95
2017-09-20T05:12:11.775Z,63.95
2017-09-20T05:12:52.226Z,63.76
2017-09-20T05:13:32.674Z,63.76
2017-09-20T05:14:13.121Z,63.67
2017-09-20T05:14:53.774Z,63.57
2017-09-20T05:15:34.221Z,63.57
2017-09-20T05:16:14.670Z,63.95
2017-09-20T05:16:55.120Z,63.85
2017-09-20T05:17:35.575Z,63.85
2017-09-20T05:18:16.005Z,63.85
2017-09-20T05:18:56.451Z,63.85
2017-09-20T05:19:36.893Z,63.67
2017-09-20T05:20:17.350Z,63.67
2017-09-20T05:20:57.798Z,63.76
2017-09-20T05:21:38.238Z,63.76
2017-09-20T05:22:18.686Z,63.67
2017-09-20T05:22:59.139Z,63.67
2017-09-20T05:23:39.590Z,63.37
2017-09-20T05:24:20.039Z,63.57
2017-09-20T05:25:00.484Z,63.57
2017-09-20T05:25:40.943Z,63.47
2017-09-20T05:26:21.375Z,63.47
2017-09-20T05:27:01.819Z,63.28
2017-09-20T05:27:42.269Z,63.57
2017-09-20T05:28:22.717Z,63.37
2017-09-20T05:29:03.163Z,63.47
2017-09-20T05:29:43.617Z,63.28
2017-09-20T05:30:24.061Z,63.37
2017-09-20T05:31:04.501Z,63.57
2017-09-20T05:31:44.950Z,63.47
2017-09-20T05:32:25.396Z,63.47
2017-09-20T05:33:05.852Z,63.37
2017-09-20T05:33:46.305Z,63.28
2017-09-20T05:34:26.752Z,63.28
2017-09-20T05:35:07.207Z,63.28
2017-09-20T05:35:47.646Z,63.57
2017-09-20T05:36:28.095Z,63.37
2017-09-20T05:37:08.550Z,63.28
2017-09-20T05:37:48.999Z,63.18
2017-09-20T05:38:29.444Z,63.18
2017-09-20T05:39:09.894Z,62.99
2017-09-20T05:39:50.343Z,62.99
2017-09-20T05:40:30.788Z,62.99
2017-09-20T05:41:11.240Z,62.99
2017-09-20T05:41:51.683Z,63.28
2017-09-20T05:42:32.146Z,63.18
2017-09-20T05:43:12.600Z,63.09
2017-09-20T05:43:53.044Z,63.09
2017-09-20T05:44:33.487Z,63.28
2017-09-20T05:45:13.927Z,63.18
2017-09-20T05:45:54.373Z,62.99
2017-09-20T05:46:34.825Z,62.89
2017-09-20T05:47:15.274Z,63.18
2017-09-20T05:47:55.736Z,62.99
2017-09-20T05:48:36.187Z,62.99
2017-09-20T05:49:16.638Z,63.09
2017-09-20T05:49:57.081Z,62.99
2017-09-20T05:50:37.528Z,62.99
2017-09-20T05:51:17.969Z,62.89
2017-09-20T05:51:58.425Z,62.79
2017-09-20T05:52:38.874Z,62.7
2017-09-20T05:53:19.321Z,62.79
2017-09-20T05:53:59.774Z,63.09
2017-09-20T05:54:40.223Z,63.09
2017-09-20T05:55:20.663Z,63.09
2017-09-20T05:56:01.120Z,62.7
2017-09-20T05:56:41.582Z,62.7
2017-09-20T05:57:22.020Z,62.99
2017-09-20T05:58:02.466Z,62.7
2017-09-20T05:58:42.908Z,62.79
2017-09-20T05:59:23.359Z,62.79
2017-09-20T06:00:03.805Z,62.89
2017-09-20T06:00:44.256Z,62.99
2017-09-20T06:01:24.693Z,62.99
2017-09-20T06:02:05.142Z,62.89
2017-09-20T06:02:45.585Z,62.89
2017-09-20T06:03:26.032Z,62.99
2017-09-20T06:04:06.483Z,63.18
2017-09-20T06:04:46.927Z,63.18
2017-09-20T06:05:27.373Z,63.09
2017-09-20T06:06:07.826Z,63.37
2017-09-20T06:06:48.279Z,63.28
2017-09-20T06:07:28.747Z,63.28
2017-09-20T06:08:09.191Z,63.47
2017-09-20T06:08:49.637Z,63.28
2017-09-20T06:09:30.088Z,63.47
2017-09-20T06:10:10.532Z,63.09
2017-09-20T06:10:50.976Z,63.47
2017-09-20T06:11:31.431Z,63.47
2017-09-20T06:12:11.871Z,63.18
2017-09-20T06:12:52.322Z,63.18
2017-09-20T06:13:32.768Z,63.18
2017-09-20T06:14:13.222Z,63.18
2017-09-20T06:14:53.673Z,63.28
2017-09-20T06:15:34.105Z,63.09
2017-09-20T06:16:14.547Z,63.09
2017-09-20T06:16:54.999Z,63.18
2017-09-20T06:17:35.443Z,63.18
2017-09-20T06:18:15.885Z,63.09
2017-09-20T06:18:56.332Z,62.99
2017-09-20T06:19:36.775Z,63.28
2017-09-20T06:20:17.223Z,63.09
2017-09-20T06:20:57.670Z,63.28
2017-09-20T06:21:38.141Z,63.18
2017-09-20T06:22:18.586Z,63.09
2017-09-20T06:22:59.031Z,63.18
2017-09-20T06:23:39.481Z,63.09
2017-09-20T06:24:19.935Z,63.37
2017-09-20T06:25:00.384Z,62.99
2017-09-20T06:25:40.835Z,62.99
2017-09-20T06:26:21.280Z,62.99
2017-09-20T06:27:01.728Z,62.89
2017-09-20T06:27:42.176Z,62.79
2017-09-20T06:28:22.631Z,62.79
2017-09-20T06:29:03.079Z,62.7
2017-09-20T06:29:43.542Z,62.99
2017-09-20T06:30:23.969Z,62.7
2017-09-20T06:31:04.404Z,62.79
2017-09-20T06:31:44.853Z,62.89
2017-09-20T06:32:25.295Z,62.99
2017-09-20T06:33:05.767Z,62.7
2017-09-20T06:33:46.214Z,62.99
2017-09-20T06:34:26.656Z,62.99
2017-09-20T06:35:07.123Z,62.99
2017-09-20T06:35:48.161Z,62.89
2017-09-20T06:36:28.605Z,62.89
2017-09-20T06:37:09.048Z,62.79
2017-09-20T06:37:49.510Z,62.89
2017-09-20T06:38:29.959Z,62.79
2017-09-20T06:39:10.399Z,62.89
2017-09-20T06:39:50.842Z,62.89
2017-09-20T06:40:31.290Z,62.79
2017-09-20T06:41:11.737Z,62.7
2017-09-20T06:41:52.181Z,62.89
2017-09-20T06:42:32.645Z,62.7
2017-09-20T06:43:13.118Z,62.7
2017-09-20T06:43:53.537Z,62.79
2017-09-20T06:44:33.986Z,62.79
2017-09-20T06:45:14.431Z,62.79
2017-09-20T06:45:54.871Z,62.89
2017-09-20T06:46:35.315Z,62.79
2017-09-20T06:47:15.759Z,62.99
2017-09-20T06:47:56.205Z,63.09
2017-09-20T06:48:36.724Z,62.99
2017-09-20T06:49:17.091Z,62.89
2017-09-20T06:49:57.534Z,62.99
2017-09-20T06:50:37.995Z,62.89
2017-09-20T06:51:18.425Z,62.79
2017-09-20T06:51:58.890Z,62.79
2017-09-20T06:52:39.360Z,62.99
2017-09-20T06:53:19.791Z,62.99
2017-09-20T06:54:00.244Z,62.89
2017-09-20T06:54:40.685Z,62.99
2017-09-20T06:55:21.126Z,62.99
2017-09-20T06:56:01.591Z,62.99
2017-09-20T06:56:42.041Z,62.89
2017-09-20T06:57:22.495Z,63.09
2017-09-20T06:58:02.945Z,62.99
2017-09-20T06:58:43.365Z,62.89
2017-09-20T06:59:23.813Z,63.09
2017-09-20T07:00:04.258Z,62.99
2017-09-20T07:00:44.702Z,62.99
2017-09-20T07:01:25.152Z,62.7
2017-09-20T07:02:05.599Z,62.99
2017-09-20T07:02:46.041Z,62.7
2017-09-20T07:03:26.494Z,62.79
2017-09-20T07:04:06.937Z,62.99
2017-09-20T07:04:47.386Z,62.79
2017-09-20T07:05:27.841Z,62.89
2017-09-20T07:06:08.290Z,62.89
2017-09-20T07:06:48.734Z,62.89
2017-09-20T07:07:29.182Z,62.89
2017-09-20T07:08:09.627Z,62.79
2017-09-20T07:08:50.116Z,62.99
2017-09-20T07:09:30.568Z,62.79
2017-09-20T07:10:11.018Z,62.79
2017-09-20T07:10:51.463Z,63.09
2017-09-20T07:11:31.917Z,63.09
2017-09-20T07:12:12.352Z,62.79
2017-09-20T07:12:52.799Z,62.79
2017-09-20T07:13:33.248Z,62.79
2017-09-20T07:14:13.690Z,62.79
2017-09-20T07:14:54.126Z,62.79
2017-09-20T07:15:34.573Z,62.99
2017-09-20T07:16:15.060Z,62.79
2017-09-20T07:16:55.464Z,62.79
2017-09-20T07:17:35.918Z,62.89
2017-09-20T07:18:16.402Z,62.89
2017-09-20T07:18:56.842Z,62.99
2017-09-20T07:19:37.298Z,62.7
2017-09-20T07:20:17.736Z,62.79
2017-09-20T07:20:58.174Z,62.79
2017-09-20T07:21:38.611Z,62.79
2017-09-20T07:22:19.095Z,62.89
2017-09-20T07:22:59.549Z,62.79
2017-09-20T07:23:39.977Z,62.79
2017-09-20T07:24:20.416Z,62.79
2017-09-20T07:25:00.879Z,62.79
2017-09-20T07:25:41.321Z,62.79
2017-09-20T07:26:21.768Z,63.09
2017-09-20T07:27:02.212Z,62.79
2017-09-20T07:27:42.656Z,62.79
2017-09-20T07:28:23.106Z,62.99
2017-09-20T07:29:03.547Z,62.99
2017-09-20T07:29:43.998Z,63.09
2017-09-20T07:30:24.454Z,63.09
2017-09-20T07:31:04.905Z,62.6
2017-09-20T07:31:45.347Z,62.79
2017-09-20T07:32:25.793Z,62.7
2017-09-20T07:33:06.242Z,62.89
2017-09-20T07:33:46.696Z,62.51
2017-09-20T07:34:27.141Z,62.6
2017-09-20T07:35:07.592Z,62.6
2017-09-20T07:35:48.042Z,62.51
2017-09-20T07:36:28.478Z,62.7
2017-09-20T07:37:08.919Z,62.15
2017-09-20T07:37:49.371Z,62.41
2017-09-20T07:38:29.826Z,62.54
2017-09-20T07:39:10.281Z,62.34
2017-09-20T07:39:50.725Z,62.05
2017-09-20T07:40:31.218Z,62.05
2017-09-20T07:41:11.662Z,62.34
2017-09-20T07:41:52.110Z,62.05
2017-09-20T07:42:32.557Z,62.25
2017-09-20T07:43:13.009Z,62.25
2017-09-20T07:43:53.454Z,62.15
2017-09-20T07:44:33.900Z,62.15
2017-09-20T07:45:14.351Z,62.15
2017-09-20T07:45:54.801Z,62.05
2017-09-20T07:47:47.400Z,61.77
2017-09-20T07:48:27.845Z,61.96
2017-09-20T07:49:08.295Z,62.25
2017-09-20T07:49:48.736Z,62.05
2017-09-20T07:50:29.184Z,62.05
2017-09-20T07:51:09.642Z,61.96
2017-09-20T07:51:50.091Z,62.05
2017-09-20T07:52:30.539Z,62.05
2017-09-20T07:53:10.987Z,62.25
2017-09-20T07:53:51.440Z,62.15
2017-09-20T07:54:31.890Z,62.05
2017-09-20T07:55:12.337Z,61.86
2017-09-20T07:55:52.773Z,62.34
2017-09-20T07:56:33.216Z,61.96
2017-09-20T07:57:13.677Z,62.15
2017-09-20T07:57:54.112Z,62.05
2017-09-20T07:58:34.549Z,62.05
2017-09-20T07:59:15.000Z,62.15
2017-09-20T07:59:55.449Z,62.05
2017-09-20T08:00:35.895Z,62.05
2017-09-20T08:01:16.337Z,62.05
2017-09-20T08:01:56.780Z,62.05
2017-09-20T08:02:37.217Z,62.05
2017-09-20T08:03:17.660Z,62.05
2017-09-20T08:03:58.105Z,62.05
2017-09-20T08:04:38.549Z,62.05
2017-09-20T08:05:19.000Z,62.05
2017-09-20T08:05:59.451Z,62.15
2017-09-20T08:06:39.899Z,62.05
2017-09-20T08:07:20.346Z,62.15
2017-09-20T08:08:00.803Z,61.96
2017-09-20T08:08:41.250Z,62.34
2017-09-20T08:09:21.703Z,62.34
2017-09-20T08:10:02.151Z,62.54
2017-09-20T08:10:42.596Z,62.15
2017-09-20T08:11:23.043Z,62.34
2017-09-20T08:12:03.489Z,62.54
2017-09-20T08:12:43.937Z,62.34
2017-09-20T08:13:24.387Z,62.15
2017-09-20T08:14:04.844Z,62.54
2017-09-20T08:14:45.286Z,62.34
2017-09-20T08:15:25.739Z,62.05
2017-09-20T08:16:06.200Z,62.25
2017-09-20T08:16:46.649Z,62.15
2017-09-20T08:17:27.093Z,62.15
2017-09-20T08:18:07.538Z,62.12
2017-09-20T08:18:47.986Z,62.15
2017-09-20T08:19:28.434Z,61.96
2017-09-20T08:20:08.895Z,62.34
2017-09-20T08:20:49.348Z,61.96
2017-09-20T08:21:29.795Z,62.15
2017-09-20T08:22:10.232Z,61.83
2017-09-20T08:22:50.683Z,62.05
2017-09-20T08:23:31.137Z,61.96
2017-09-20T08:24:11.582Z,62.15
2017-09-20T08:24:52.023Z,62.15
2017-09-20T08:25:32.470Z,61.77
2017-09-20T08:26:12.918Z,61.74
2017-09-20T08:26:53.364Z,61.74
2017-09-20T08:27:33.823Z,62.12
2017-09-20T08:28:14.268Z,62.15
2017-09-20T08:28:54.757Z,61.74
2017-09-20T08:29:35.149Z,61.77
2017-09-20T08:30:15.590Z,61.93
2017-09-20T08:30:56.037Z,62.12
2017-09-20T08:31:36.485Z,61.96
2017-09-20T08:32:16.939Z,61.83
2017-09-20T08:32:57.388Z,61.93
2017-09-20T08:33:37.837Z,62.15
2017-09-20T08:34:18.281Z,62.12
2017-09-20T08:34:58.742Z,61.74
2017-09-20T08:35:39.192Z,61.93
2017-09-20T08:36:19.639Z,61.93
2017-09-20T08:37:00.086Z,61.93
2017-09-20T08:37:40.538Z,62.15
2017-09-20T08:38:20.994Z,62.25
2017-09-20T08:39:01.439Z,62.05
2017-09-20T08:39:41.885Z,62.15
2017-09-20T08:40:22.343Z,62.02
2017-09-20T08:41:02.785Z,62.05
2017-09-20T08:41:43.235Z,62.05
2017-09-20T08:42:23.683Z,62.15
2017-09-20T08:43:04.135Z,62.25
2017-09-20T08:43:44.582Z,61.77
2017-09-20T08:44:25.030Z,62.15
2017-09-20T08:45:05.488Z,61.96
2017-09-20T08:45:45.934Z,62.15
2017-09-20T08:46:26.388Z,61.77
2017-09-20T08:47:06.831Z,61.57
2017-09-20T08:47:47.278Z,61.57
2017-09-20T08:48:27.721Z,61.19
2017-09-20T08:49:08.160Z,61.28